Time;durP1;ratioP1;P1;durP2;ratioP2;P2;SDS_P1;SDS_P2;PMS_P1;PMS_P2;Temp;Humidity;BMP_temperature;BMP_pressure;BME280_temperature;BME280_humidity;BME280_pressure;Samples;Min_cycle;Max_cycle;Signal;HPM_P1;HPM_P2
2021/03/10 00:00:55;;;;;;;42.22;25.00;;;2.00;99.90;;;;;;4823198;29;20046;-78
2021/03/10 00:03:21;;;;;;;45.30;25.05;;;2.00;99.90;;;;;;4821276;29;20050;-78
2021/03/10 00:05:52;;;;;;;43.92;25.15;;;2.00;99.90;;;;;;4809820;29;20038;-77
2021/03/10 00:08:18;;;;;;;46.90;25.42;;;1.90;99.90;;;;;;4811858;29;20140;-77
2021/03/10 00:10:50;;;;;;;44.13;25.15;;;2.00;99.90;;;;;;4831309;29;20049;-77
2021/03/10 00:13:16;;;;;;;49.65;27.48;;;1.90;99.90;;;;;;4827026;29;20056;-78
2021/03/10 00:15:47;;;;;;;48.25;25.35;;;1.90;99.90;;;;;;4840402;29;20050;-77
2021/03/10 00:18:18;;;;;;;45.58;26.92;;;1.90;99.90;;;;;;4807343;29;20071;-78
2021/03/10 00:20:45;;;;;;;43.95;24.52;;;1.90;99.90;;;;;;4806714;29;20133;-78
2021/03/10 00:23:16;;;;;;;47.72;25.50;;;1.90;99.90;;;;;;4821797;29;20082;-78
2021/03/10 00:25:47;;;;;;;45.33;26.00;;;1.90;99.90;;;;;;4809933;29;20047;-78
2021/03/10 00:28:18;;;;;;;48.28;26.80;;;1.90;99.90;;;;;;4808894;29;20175;-77
2021/03/10 00:30:50;;;;;;;46.80;25.92;;;1.90;99.90;;;;;;4809934;29;20057;-78
2021/03/10 00:33:21;;;;;;;48.15;25.67;;;1.90;99.90;;;;;;4808986;29;20537;-78
2021/03/10 00:35:52;;;;;;;46.20;26.65;;;1.90;99.90;;;;;;4809425;29;20050;-78
2021/03/10 00:38:24;;;;;;;46.38;26.23;;;1.90;99.90;;;;;;4808533;29;20155;-78
2021/03/10 00:40:55;;;;;;;42.47;25.33;;;1.90;99.90;;;;;;4808343;29;20525;-78
2021/03/10 00:43:26;;;;;;;49.08;26.98;;;1.90;99.90;;;;;;4808374;29;20074;-78
2021/03/10 00:45:58;;;;;;;47.17;25.63;;;1.90;99.90;;;;;;4808216;29;20364;-78
2021/03/10 00:48:30;;;;;;;45.92;24.45;;;1.90;99.90;;;;;;4823000;29;20514;-78
2021/03/10 00:51:01;;;;;;;47.80;25.65;;;1.90;99.90;;;;;;4808313;29;20491;-78
2021/03/10 00:53:32;;;;;;;43.85;26.17;;;1.90;99.90;;;;;;4808187;29;20134;-78
2021/03/10 00:56:04;;;;;;;45.90;26.38;;;1.90;99.90;;;;;;4808098;29;20050;-78
2021/03/10 00:58:35;;;;;;;49.88;28.00;;;1.90;99.90;;;;;;4821830;29;20335;-78
2021/03/10 01:01:06;;;;;;;46.58;27.15;;;1.90;99.90;;;;;;4807954;29;20049;-78
2021/03/10 01:03:38;;;;;;;46.65;25.35;;;1.80;99.90;;;;;;4807737;29;20070;-78
2021/03/10 01:06:04;;;;;;;47.05;26.90;;;1.90;99.90;;;;;;4808058;29;20053;-78
2021/03/10 01:08:35;;;;;;;47.85;25.88;;;1.90;99.90;;;;;;4822900;29;20593;-78
2021/03/10 01:11:07;;;;;;;43.13;24.88;;;1.90;99.90;;;;;;4808764;29;20068;-78
2021/03/10 01:13:38;;;;;;;43.80;24.83;;;2.00;99.90;;;;;;4822777;29;20074;-78
2021/03/10 01:16:09;;;;;;;43.05;26.05;;;2.00;99.90;;;;;;4808053;29;20418;-78
2021/03/10 01:18:41;;;;;;;43.38;24.63;;;2.00;99.90;;;;;;4807175;29;20077;-78
2021/03/10 01:21:12;;;;;;;47.78;26.80;;;2.00;99.90;;;;;;4808040;29;20046;-78
2021/03/10 01:23:43;;;;;;;48.85;27.25;;;2.00;99.90;;;;;;4822580;29;20081;-78
2021/03/10 01:26:14;;;;;;;45.13;26.05;;;2.00;99.90;;;;;;4807586;29;20046;-78
2021/03/10 01:28:46;;;;;;;49.50;27.80;;;2.00;99.90;;;;;;4822320;29;20052;-78
2021/03/10 01:31:17;;;;;;;49.28;28.73;;;2.00;99.90;;;;;;4808024;29;20054;-78
2021/03/10 01:33:48;;;;;;;49.70;27.40;;;2.00;99.90;;;;;;4822583;29;20047;-78
2021/03/10 01:36:19;;;;;;;51.15;30.00;;;2.00;99.90;;;;;;4808224;29;20061;-78
2021/03/10 01:38:51;;;;;;;50.50;27.25;;;1.90;99.90;;;;;;4807037;29;20079;-78
2021/03/10 01:41:22;;;;;;;49.90;28.50;;;2.00;99.90;;;;;;4807233;29;20430;-78
2021/03/10 01:43:53;;;;;;;52.72;28.48;;;2.00;99.90;;;;;;4822667;29;20096;-78
2021/03/10 01:46:34;;;;;;;50.28;30.33;;;1.90;99.90;;;;;;4807897;29;20050;-78
2021/03/10 01:49:06;;;;;;;50.35;28.95;;;1.90;99.90;;;;;;4807455;29;20115;-78
2021/03/10 01:51:37;;;;;;;51.83;28.60;;;1.90;99.90;;;;;;4807139;29;20054;-78
2021/03/10 01:54:08;;;;;;;48.67;27.23;;;1.90;99.90;;;;;;4807093;29;20060;-78
2021/03/10 01:56:42;;;;;;;47.10;27.08;;;2.00;99.90;;;;;;4808209;29;20050;-78
2021/03/10 01:59:13;;;;;;;51.53;26.08;;;2.00;99.90;;;;;;4806670;29;20050;-78
2021/03/10 02:01:44;;;;;;;50.15;28.27;;;2.00;99.90;;;;;;4806755;29;20053;-78
2021/03/10 02:04:16;;;;;;;44.67;25.33;;;2.00;99.90;;;;;;4821546;29;20074;-78
2021/03/10 02:06:48;;;;;;;49.03;27.65;;;2.00;99.90;;;;;;4807191;29;20058;-78
2021/03/10 02:09:39;;;;;;;47.08;27.55;;;2.00;99.90;;;;;;4821546;29;20140;-78
2021/03/10 02:12:16;;;;;;;47.08;27.70;;;2.00;99.90;;;;;;4821755;29;20061;-78
2021/03/10 02:14:58;;;;;;;47.28;27.13;;;2.10;99.90;;;;;;4821774;29;20130;-78
2021/03/10 02:17:36;;;;;;;51.92;28.63;;;2.10;99.90;;;;;;4807239;29;20507;-78
2021/03/10 02:20:32;;;;;;;53.85;29.10;;;2.10;99.90;;;;;;4806230;29;20528;-78
2021/03/10 02:23:22;;;;;;;46.90;26.80;;;2.10;99.90;;;;;;4806119;29;20054;-78
2021/03/10 02:26:07;;;;;;;47.13;27.27;;;2.10;99.90;;;;;;4821522;29;20471;-78
2021/03/10 02:28:34;;;;;;;48.15;27.25;;;2.10;99.90;;;;;;4821298;29;20058;-78
2021/03/10 02:31:01;;;;;;;51.50;29.08;;;2.10;99.90;;;;;;4821651;29;20047;-78
2021/03/10 02:33:37;;;;;;;48.35;27.90;;;2.10;99.90;;;;;;4807025;29;20519;-78
2021/03/10 02:36:11;;;;;;;43.40;25.40;;;2.10;99.90;;;;;;4806554;29;20419;-78
2021/03/10 02:38:59;;;;;;;51.58;27.48;;;2.10;99.90;;;;;;4821596;29;20138;-78
2021/03/10 02:41:32;;;;;;;49.65;27.20;;;2.10;99.90;;;;;;4806874;29;20129;-78
2021/03/10 02:44:05;;;;;;;48.72;27.08;;;2.10;99.90;;;;;;4806495;29;20070;-78
2021/03/10 02:46:37;;;;;;;48.38;27.55;;;2.20;99.90;;;;;;4821456;29;20089;-78
2021/03/10 02:49:10;;;;;;;48.50;28.33;;;2.20;99.90;;;;;;4806479;29;20074;-78
2021/03/10 02:51:44;;;;;;;47.80;27.52;;;2.20;99.90;;;;;;4806227;29;20095;-78
2021/03/10 02:54:17;;;;;;;52.55;26.60;;;2.20;99.90;;;;;;4806801;29;20053;-78
2021/03/10 02:56:48;;;;;;;45.97;26.92;;;2.20;99.90;;;;;;4805867;29;20065;-78
2021/03/10 02:59:20;;;;;;;49.17;26.88;;;2.20;99.90;;;;;;4806434;29;20075;-78
2021/03/10 03:01:51;;;;;;;44.92;27.95;;;2.20;99.90;;;;;;4805735;29;20426;-78
2021/03/10 03:04:22;;;;;;;47.95;27.25;;;2.20;99.90;;;;;;4806555;29;20514;-78
2021/03/10 03:06:53;;;;;;;47.80;28.60;;;2.20;99.90;;;;;;4805863;29;20038;-78
2021/03/10 03:09:25;;;;;;;46.00;26.38;;;2.20;99.90;;;;;;4805944;29;20061;-78
2021/03/10 03:11:56;;;;;;;46.35;26.48;;;2.20;99.90;;;;;;4807785;29;20055;-78
2021/03/10 03:14:30;;;;;;;47.22;26.70;;;2.20;99.90;;;;;;4810521;29;20074;-78
2021/03/10 03:17:02;;;;;;;47.35;26.77;;;2.20;99.90;;;;;;4824536;29;20414;-78
2021/03/10 03:19:34;;;;;;;45.00;26.67;;;2.20;99.90;;;;;;4825551;29;20074;-78
2021/03/10 03:22:03;;;;;;;46.63;26.88;;;2.20;99.90;;;;;;4823895;29;20050;-78
2021/03/10 03:24:34;;;;;;;44.67;27.15;;;2.20;99.90;;;;;;4794745;29;20078;-78
2021/03/10 03:27:06;;;;;;;43.92;26.08;;;2.20;99.90;;;;;;4824191;29;20042;-78
2021/03/10 03:29:38;;;;;;;42.92;25.67;;;2.20;99.90;;;;;;4809481;29;20046;-78
2021/03/10 03:32:09;;;;;;;49.40;27.30;;;2.20;99.90;;;;;;4824075;29;20506;-78
2021/03/10 03:34:41;;;;;;;45.70;25.83;;;2.20;99.90;;;;;;4809517;29;20102;-78
2021/03/10 03:37:12;;;;;;;45.28;26.35;;;2.10;99.90;;;;;;4825383;29;20068;-78
2021/03/10 03:39:38;;;;;;;44.80;26.60;;;2.10;99.90;;;;;;4808510;29;20054;-78
2021/03/10 03:42:11;;;;;;;44.80;24.73;;;2.20;99.90;;;;;;4808512;29;20071;-78
2021/03/10 03:44:42;;;;;;;46.42;25.80;;;2.20;99.90;;;;;;4823161;29;20050;-78
2021/03/10 03:47:17;;;;;;;43.03;25.42;;;2.20;99.90;;;;;;4807959;29;20056;-78
2021/03/10 03:49:48;;;;;;;47.53;26.30;;;2.20;99.90;;;;;;4807806;29;20070;-78
2021/03/10 03:52:19;;;;;;;47.80;27.60;;;2.20;99.90;;;;;;4808791;29;20549;-78
2021/03/10 03:54:51;;;;;;;45.33;26.15;;;2.20;99.90;;;;;;4808010;29;20600;-78
2021/03/10 03:57:22;;;;;;;48.72;27.80;;;2.20;99.90;;;;;;4823900;29;20043;-78
2021/03/10 03:59:53;;;;;;;43.45;26.13;;;2.20;99.90;;;;;;4823460;29;20147;-78
2021/03/10 04:02:24;;;;;;;47.47;27.00;;;2.20;99.90;;;;;;4808622;29;20046;-78
2021/03/10 04:04:51;;;;;;;48.42;25.20;;;2.20;99.90;;;;;;4823373;29;20054;-78
2021/03/10 04:07:22;;;;;;;47.72;27.85;;;2.10;99.90;;;;;;4809320;29;20061;-78
2021/03/10 04:09:53;;;;;;;45.60;27.23;;;2.20;99.90;;;;;;4808594;29;20069;-78
2021/03/10 04:15:14;;;;;;;48.38;26.33;;;2.10;99.90;;;;;;4998083;24;20054;-79
2021/03/10 04:17:46;;;;;;;46.05;24.92;;;2.10;99.90;;;;;;4814471;29;20509;-79
2021/03/10 04:20:20;;;;;;;43.20;24.27;;;2.10;99.90;;;;;;4859979;29;20096;-79
2021/03/10 04:22:47;;;;;;;47.92;26.30;;;2.10;99.90;;;;;;4827735;29;20049;-79
2021/03/10 04:25:14;;;;;;;47.67;27.02;;;2.10;99.90;;;;;;4843567;29;20049;-79
2021/03/10 04:27:46;;;;;;;44.67;25.67;;;2.10;99.90;;;;;;4860368;29;20071;-78
2021/03/10 04:30:18;;;;;;;41.72;25.17;;;2.10;99.90;;;;;;4844540;29;20046;-79
2021/03/10 04:32:49;;;;;;;44.65;26.27;;;2.10;99.90;;;;;;4844411;29;20045;-79
2021/03/10 04:35:21;;;;;;;51.42;26.27;;;2.10;99.90;;;;;;4842951;29;20528;-79
2021/03/10 04:37:53;;;;;;;50.72;26.73;;;2.10;99.90;;;;;;4842465;29;20457;-78
2021/03/10 04:40:24;;;;;;;46.35;26.52;;;2.20;99.90;;;;;;4843178;29;20060;-79
2021/03/10 04:42:55;;;;;;;44.40;26.42;;;2.10;99.90;;;;;;4843138;29;20056;-79
2021/03/10 04:45:27;;;;;;;52.53;27.13;;;2.10;99.90;;;;;;4844589;29;20085;-79
2021/03/10 04:47:53;;;;;;;45.47;26.27;;;2.10;99.90;;;;;;4843392;29;20050;-79
2021/03/10 04:50:24;;;;;;;45.72;25.63;;;2.10;99.90;;;;;;4843621;29;20462;-79
2021/03/10 04:52:55;;;;;;;49.00;26.48;;;2.10;99.90;;;;;;4844716;29;20055;-79
2021/03/10 04:55:27;;;;;;;48.15;26.95;;;2.10;99.90;;;;;;4844660;29;20119;-79
2021/03/10 04:57:58;;;;;;;51.85;27.00;;;2.10;99.90;;;;;;4844079;29;20041;-79
2021/03/10 05:00:25;;;;;;;48.38;27.67;;;2.10;99.90;;;;;;4843387;29;20053;-79
2021/03/10 05:02:56;;;;;;;51.47;28.58;;;2.10;99.90;;;;;;4843357;29;20394;-79
2021/03/10 05:05:27;;;;;;;47.50;27.75;;;2.10;99.90;;;;;;4828879;29;20073;-79
2021/03/10 05:07:59;;;;;;;48.97;27.63;;;2.00;99.90;;;;;;4843316;29;20048;-79
2021/03/10 05:10:25;;;;;;;47.85;28.40;;;2.00;99.90;;;;;;4843091;29;20045;-79
2021/03/10 05:12:56;;;;;;;48.03;27.45;;;2.00;99.90;;;;;;4843434;29;20064;-79
2021/03/10 05:15:27;;;;;;;45.97;27.20;;;2.00;99.90;;;;;;4843363;29;20088;-79
2021/03/10 05:17:59;;;;;;;45.90;25.75;;;2.00;99.90;;;;;;4843037;29;20045;-79
2021/03/10 05:20:30;;;;;;;53.72;26.75;;;2.00;99.90;;;;;;4842946;29;20105;-79
2021/03/10 05:23:01;;;;;;;47.50;26.20;;;2.00;99.90;;;;;;4842850;29;20049;-79
2021/03/10 05:25:33;;;;;;;42.53;23.73;;;2.00;99.90;;;;;;4843163;29;20355;-79
2021/03/10 05:27:59;;;;;;;47.88;27.58;;;2.00;99.90;;;;;;4842862;29;20140;-79
2021/03/10 05:30:30;;;;;;;50.63;27.17;;;1.90;99.90;;;;;;4842866;29;20050;-79
2021/03/10 05:32:56;;;;;;;44.42;25.42;;;1.90;99.90;;;;;;4843359;29;20052;-79
2021/03/10 05:35:27;;;;;;;49.08;25.73;;;1.90;99.90;;;;;;4842643;29;20046;-79
2021/03/10 05:37:54;;;;;;;48.00;25.38;;;1.90;99.90;;;;;;4843598;29;20106;-79
2021/03/10 05:40:27;;;;;;;48.60;26.77;;;2.00;99.90;;;;;;4836865;29;20056;-79
2021/03/10 05:42:53;;;;;;;46.70;26.27;;;2.00;99.90;;;;;;4840843;29;20178;-79
2021/03/10 05:45:25;;;;;;;47.45;25.85;;;1.90;99.90;;;;;;4825523;29;20054;-79
2021/03/10 05:47:51;;;;;;;47.35;26.75;;;1.90;99.90;;;;;;4825087;29;20049;-79
2021/03/10 05:50:17;;;;;;;48.45;26.90;;;2.00;99.90;;;;;;4841650;29;20575;-79
2021/03/10 05:52:48;;;;;;;51.30;27.70;;;2.00;99.90;;;;;;4825300;29;20118;-79
2021/03/10 05:55:21;;;;;;;48.00;26.77;;;2.00;99.90;;;;;;4824803;29;20053;-79
2021/03/10 05:57:48;;;;;;;48.63;27.13;;;2.00;99.90;;;;;;4824613;29;20510;-79
2021/03/10 06:00:20;;;;;;;51.20;26.17;;;2.00;99.90;;;;;;4824921;29;20050;-79
2021/03/10 06:02:54;;;;;;;46.47;26.33;;;2.10;99.90;;;;;;4825077;29;20106;-79
2021/03/10 06:05:25;;;;;;;47.33;26.10;;;2.10;99.90;;;;;;4825395;29;20057;-79
2021/03/10 06:08:01;;;;;;;45.90;27.17;;;2.10;99.90;;;;;;4823880;29;20526;-79
2021/03/10 06:10:40;;;;;;;49.22;26.77;;;2.10;99.90;;;;;;4823877;29;20056;-80
2021/03/10 06:13:24;;;;;;;54.22;28.35;;;2.10;99.90;;;;;;4840668;29;20108;-78
2021/03/10 06:15:52;;;;;;;49.10;26.33;;;2.10;99.90;;;;;;4823351;29;20084;-80
2021/03/10 06:18:33;;;;;;;50.40;26.53;;;2.20;99.90;;;;;;4823746;29;20074;-78
2021/03/10 06:21:11;;;;;;;43.55;24.10;;;2.20;99.90;;;;;;4823973;29;20060;-79
2021/03/10 06:23:53;;;;;;;47.75;25.20;;;2.20;99.90;;;;;;4805567;29;20050;-79
2021/03/10 06:26:22;;;;;;;50.33;25.23;;;2.20;99.90;;;;;;4805935;29;20143;-80
2021/03/10 06:28:54;;;;;;;45.80;27.15;;;2.20;99.90;;;;;;4805075;29;20050;-80
2021/03/10 06:31:21;;;;;;;52.03;28.55;;;2.20;99.90;;;;;;4790514;29;20500;-79
2021/03/10 06:34:10;;;;;;;49.95;25.73;;;2.20;99.90;;;;;;4805068;29;20145;-80
2021/03/10 06:36:50;;;;;;;38.55;20.80;;;2.20;99.90;;;;;;4805658;29;20058;-80
2021/03/10 06:39:29;;;;;;;49.40;26.52;;;2.20;99.90;;;;;;4805059;29;20042;-80
2021/03/10 06:42:10;;;;;;;51.25;26.42;;;2.20;99.90;;;;;;4805672;29;20046;-79
2021/03/10 06:44:52;;;;;;;46.03;25.38;;;2.20;99.90;;;;;;4805123;29;20046;-79
2021/03/10 06:47:37;;;;;;;49.63;25.52;;;2.20;99.90;;;;;;4804912;29;20054;-79
2021/03/10 06:50:10;;;;;;;47.15;26.63;;;2.20;99.90;;;;;;4813678;29;20045;-79
2021/03/10 06:52:38;;;;;;;48.75;25.42;;;2.20;99.90;;;;;;4823103;29;20057;-80
2021/03/10 06:55:05;;;;;;;49.38;28.00;;;2.20;99.90;;;;;;4823162;29;20763;-79
2021/03/10 06:57:46;;;;;;;47.28;25.55;;;2.20;99.90;;;;;;4823553;29;20726;-79
2021/03/10 07:00:23;;;;;;;49.42;26.63;;;2.30;99.90;;;;;;4824073;29;20045;-80
2021/03/10 07:02:54;;;;;;;46.70;27.42;;;2.30;99.90;;;;;;4824042;29;20042;-79
2021/03/10 07:05:27;;;;;;;43.47;25.13;;;2.30;99.90;;;;;;4823078;29;20048;-80
2021/03/10 07:07:59;;;;;;;46.05;24.70;;;2.30;99.90;;;;;;4808380;29;20145;-79
2021/03/10 07:10:30;;;;;;;48.90;26.10;;;2.40;99.90;;;;;;4823274;29;20167;-79
2021/03/10 07:13:01;;;;;;;47.60;25.60;;;2.40;99.90;;;;;;4824278;29;20052;-79
2021/03/10 07:15:29;;;;;;;49.70;26.17;;;2.50;99.90;;;;;;4839797;29;20053;-80
2021/03/10 07:18:00;;;;;;;46.55;26.80;;;2.50;99.90;;;;;;4823262;29;20050;-80
2021/03/10 07:20:31;;;;;;;45.65;24.83;;;2.50;99.90;;;;;;4809125;29;20177;-80
2021/03/10 07:23:07;;;;;;;44.28;24.20;;;2.50;99.90;;;;;;4822232;29;20072;-80
2021/03/10 07:25:43;;;;;;;44.85;24.40;;;2.50;99.90;;;;;;4837930;29;20048;-80
2021/03/10 07:28:20;;;;;;;50.20;25.90;;;2.60;99.90;;;;;;4824002;29;20494;-80
2021/03/10 07:30:51;;;;;;;43.92;24.48;;;2.60;99.90;;;;;;4839910;29;20050;-80
2021/03/10 07:33:22;;;;;;;43.90;25.20;;;2.60;99.90;;;;;;4823130;29;20471;-80
2021/03/10 07:35:59;;;;;;;44.40;23.35;;;2.60;99.90;;;;;;4823409;29;20050;-80
2021/03/10 07:38:36;;;;;;;48.50;24.90;;;2.70;99.90;;;;;;4808193;29;20048;-80
2021/03/10 07:41:13;;;;;;;47.55;24.95;;;2.70;99.90;;;;;;4824068;29;20050;-80
2021/03/10 07:43:50;;;;;;;42.83;23.00;;;2.70;99.90;;;;;;4823384;29;20042;-79
2021/03/10 07:46:33;;;;;;;46.30;24.60;;;2.70;99.90;;;;;;4822865;29;20056;-80
2021/03/10 07:49:03;;;;;;;42.22;22.95;;;2.80;99.90;;;;;;4822801;29;20050;-79
2021/03/10 07:51:36;;;;;;;43.63;24.50;;;2.80;99.90;;;;;;4825464;29;20056;-80
2021/03/10 07:54:25;;;;;;;43.77;23.40;;;2.90;99.90;;;;;;4841079;29;20045;-80
2021/03/10 07:57:16;;;;;;;44.15;24.23;;;2.90;99.90;;;;;;4841661;29;20045;-80
2021/03/10 07:59:55;;;;;;;43.85;24.45;;;2.90;99.90;;;;;;4829557;29;20056;-80
2021/03/10 08:02:28;;;;;;;43.58;23.83;;;2.90;99.90;;;;;;4829585;29;20042;-79
2021/03/10 08:05:01;;;;;;;41.58;23.48;;;3.00;99.90;;;;;;4844384;29;20442;-80
2021/03/10 08:07:33;;;;;;;40.42;22.90;;;3.10;99.90;;;;;;4844065;29;20045;-80
2021/03/10 08:09:59;;;;;;;41.03;23.13;;;3.20;99.90;;;;;;4843506;29;20505;-80
2021/03/10 08:12:40;;;;;;;39.35;22.55;;;3.20;99.90;;;;;;4844036;29;20517;-80
2021/03/10 08:15:24;;;;;;;41.55;22.55;;;3.20;99.90;;;;;;4844348;29;20057;-80
2021/03/10 08:18:05;;;;;;;40.40;22.13;;;3.20;99.90;;;;;;4844257;29;20503;-80
2021/03/10 08:20:38;;;;;;;38.28;21.13;;;3.20;99.90;;;;;;4835330;29;20064;-80
2021/03/10 08:23:07;;;;;;;40.88;23.27;;;3.30;99.90;;;;;;4825692;29;20081;-79
2021/03/10 08:25:34;;;;;;;37.38;21.02;;;3.30;99.90;;;;;;4824406;29;20433;-80
2021/03/10 08:28:15;;;;;;;42.00;21.92;;;3.30;99.90;;;;;;4824309;29;20050;-79
2021/03/10 08:30:47;;;;;;;36.90;21.55;;;3.40;99.90;;;;;;4824967;29;20049;-79
2021/03/10 08:33:13;;;;;;;41.85;22.63;;;3.50;99.90;;;;;;4808802;29;20056;-79
2021/03/10 08:35:49;;;;;;;38.85;21.05;;;3.50;99.90;;;;;;4820855;29;20046;-79
2021/03/10 08:38:15;;;;;;;36.50;21.88;;;3.70;99.90;;;;;;4813015;29;20050;-79
2021/03/10 08:40:47;;;;;;;37.80;21.05;;;3.70;99.90;;;;;;4811312;29;20064;-76
2021/03/10 08:43:19;;;;;;;37.88;20.58;;;3.80;99.90;;;;;;4824691;29;20046;-79
2021/03/10 08:45:54;;;;;;;34.08;20.98;;;3.90;99.90;;;;;;4814273;29;20050;-79
2021/03/10 08:48:20;;;;;;;35.72;20.60;;;4.00;99.90;;;;;;4824189;29;20141;-79
2021/03/10 08:50:52;;;;;;;38.45;20.95;;;4.00;99.90;;;;;;4824338;29;20042;-79
2021/03/10 08:53:25;;;;;;;37.88;20.70;;;4.10;99.90;;;;;;4824443;29;20133;-79
2021/03/10 08:56:05;;;;;;;34.97;20.35;;;4.20;99.90;;;;;;4826918;29;20049;-79
2021/03/10 08:58:36;;;;;;;34.25;21.25;;;4.30;99.90;;;;;;4835241;29;20053;-79
2021/03/10 09:01:14;;;;;;;36.05;20.20;;;4.50;99.90;;;;;;4823587;29;20074;-79
2021/03/10 09:03:45;;;;;;;33.25;19.08;;;4.60;99.90;;;;;;4824159;29;20050;-79
2021/03/10 09:06:17;;;;;;;34.65;19.17;;;4.60;99.90;;;;;;4822437;29;20052;-79
2021/03/10 09:08:49;;;;;;;31.52;18.60;;;4.70;99.90;;;;;;4823160;29;20140;-79
2021/03/10 09:11:20;;;;;;;33.97;20.50;;;4.80;99.90;;;;;;4824986;29;20129;-79
2021/03/10 09:14:07;;;;;;;32.45;19.27;;;4.80;99.90;;;;;;4823833;29;20049;-79
2021/03/10 09:16:59;;;;;;;33.53;18.73;;;4.80;99.90;;;;;;4823916;29;20045;-79
2021/03/10 09:19:37;;;;;;;;;;;4.80;99.90;;;;;;4815243;29;20506;-79
2021/03/10 09:22:20;;;;;;;34.33;19.90;;;4.80;99.90;;;;;;4823861;29;19925;-79
2021/03/10 09:24:56;;;;;;;33.28;19.50;;;4.90;99.90;;;;;;4827000;29;20694;-79
2021/03/10 09:27:29;;;;;;;31.40;18.58;;;5.00;99.90;;;;;;4827229;29;20409;-79
2021/03/10 09:30:05;;;;;;;34.35;20.35;;;5.00;99.90;;;;;;4827594;29;20053;-79
2021/03/10 09:32:45;;;;;;;28.65;18.23;;;5.10;99.90;;;;;;4823664;29;20045;-79
2021/03/10 09:35:27;;;;;;;31.38;19.13;;;5.20;99.90;;;;;;4823201;29;20072;-79
2021/03/10 09:38:02;;;;;;;29.08;17.95;;;5.20;99.90;;;;;;4823256;29;20137;-79
2021/03/10 09:40:46;;;;;;;29.25;18.13;;;5.30;99.90;;;;;;4817013;29;20053;-79
2021/03/10 09:43:22;;;;;;;29.48;19.00;;;5.40;99.90;;;;;;4823682;29;20510;-79
2021/03/10 09:46:06;;;;;;;28.80;17.05;;;5.40;99.90;;;;;;4823507;29;20049;-79
2021/03/10 09:48:41;;;;;;;30.48;17.70;;;5.60;99.90;;;;;;4823169;29;20049;-79
2021/03/10 09:51:19;;;;;;;29.48;17.65;;;5.80;99.90;;;;;;4836944;29;20509;-79
2021/03/10 09:53:58;;;;;;;28.90;17.33;;;5.80;99.90;;;;;;4841962;29;20106;-79
2021/03/10 09:56:37;;;;;;;26.75;16.10;;;5.80;99.90;;;;;;4820485;29;20046;-79
2021/03/10 09:59:11;;;;;;;29.58;17.67;;;5.70;99.90;;;;;;4819951;29;20050;-79
2021/03/10 10:01:48;;;;;;;28.10;16.65;;;5.70;99.90;;;;;;4810325;29;20101;-79
2021/03/10 10:04:28;;;;;;;26.55;15.95;;;5.70;99.90;;;;;;4839092;29;20045;-80
2021/03/10 10:07:02;;;;;;;28.98;16.05;;;5.50;99.90;;;;;;4841947;29;20045;-80
2021/03/10 10:09:44;;;;;;;26.35;16.02;;;5.40;99.90;;;;;;4831884;29;20052;-79
2021/03/10 10:12:18;;;;;;;;;;;5.40;99.90;;;;;;4810067;29;20050;-79
2021/03/10 10:14:56;;;;;;;25.65;15.35;;;5.40;99.90;;;;;;4823845;29;19925;-79
2021/03/10 10:17:32;;;;;;;33.10;17.33;;;5.40;99.90;;;;;;4823755;29;20081;-79
2021/03/10 10:20:09;;;;;;;24.95;15.82;;;5.50;99.90;;;;;;4809915;29;20113;-80
2021/03/10 10:22:41;;;;;;;26.77;15.65;;;5.50;99.90;;;;;;4824279;29;20137;-80
2021/03/10 10:25:08;;;;;;;24.23;13.38;;;5.60;99.90;;;;;;4823922;29;20148;-79
2021/03/10 10:27:44;;;;;;;22.63;13.80;;;5.70;99.90;;;;;;4823946;29;20098;-80
2021/03/10 10:30:18;;;;;;;24.38;14.18;;;5.80;99.90;;;;;;4824167;29;20521;-79
2021/03/10 10:32:51;;;;;;;26.88;13.23;;;5.90;99.90;;;;;;4824205;29;20399;-79
2021/03/10 10:35:24;;;;;;;22.85;13.05;;;6.00;99.90;;;;;;4810159;29;20468;-79
2021/03/10 10:37:52;;;;;;;22.85;13.02;;;6.00;99.90;;;;;;4824089;29;20153;-80
2021/03/10 10:40:24;;;;;;;22.70;13.07;;;6.10;99.90;;;;;;4823997;29;20148;-79
2021/03/10 10:42:55;;;;;;;24.33;13.45;;;6.20;99.90;;;;;;4820818;29;20073;-80
2021/03/10 10:45:27;;;;;;;24.98;14.57;;;6.10;99.90;;;;;;4824306;29;20083;-80
2021/03/10 10:47:58;;;;;;;23.90;13.10;;;6.10;99.90;;;;;;4822646;29;20046;-80
2021/03/10 10:50:46;;;;;;;28.08;14.02;;;6.10;99.90;;;;;;4858638;29;20041;-80
2021/03/10 10:53:20;;;;;;;;;;;6.10;99.90;;;;;;4842532;29;20050;-80
2021/03/10 10:55:47;;;;;;;25.85;14.18;;;6.10;99.90;;;;;;4841055;29;19924;-79
2021/03/10 10:58:18;;;;;;;25.15;13.25;;;6.00;99.90;;;;;;4840682;29;20061;-80
2021/03/10 11:00:50;;;;;;;22.83;12.98;;;6.00;99.90;;;;;;4841254;29;20057;-79
2021/03/10 11:03:23;;;;;;;23.90;13.77;;;6.00;99.90;;;;;;4840752;29;20050;-80
2021/03/10 11:05:56;;;;;;;29.33;15.07;;;6.00;99.90;;;;;;4840824;29;20053;-80
2021/03/10 11:08:35;;;;;;;24.10;15.02;;;6.10;99.90;;;;;;4839119;29;20049;-80
2021/03/10 11:11:06;;;;;;;24.55;13.73;;;6.10;99.90;;;;;;4822913;29;20075;-79
2021/03/10 11:13:43;;;;;;;28.48;15.05;;;6.10;99.90;;;;;;4822309;29;20054;-79
2021/03/10 11:16:31;;;;;;;24.88;14.38;;;6.10;99.90;;;;;;4810698;29;20078;-79
2021/03/10 11:19:11;;;;;;;23.63;13.63;;;6.10;99.90;;;;;;4822266;29;20142;-79
2021/03/10 11:21:45;;;;;;;21.73;13.13;;;6.10;99.90;;;;;;4822602;29;20070;-80
2021/03/10 11:24:19;;;;;;;25.77;14.20;;;6.20;99.90;;;;;;4813946;29;20635;-79
2021/03/10 11:26:46;;;;;;;34.25;17.25;;;6.30;99.90;;;;;;4828024;29;20518;-79
2021/03/10 11:29:21;;;;;;;26.02;13.88;;;6.30;99.90;;;;;;4813057;29;20073;-79
2021/03/10 11:31:53;;;;;;;27.05;14.32;;;6.40;99.90;;;;;;4809265;29;20456;-81
2021/03/10 11:34:24;;;;;;;19.75;12.40;;;6.50;99.90;;;;;;4811461;29;20069;-79
2021/03/10 11:36:57;;;;;;;22.15;12.40;;;6.60;99.90;;;;;;4826445;29;20038;-79
2021/03/10 11:39:29;;;;;;;21.53;11.50;;;6.60;99.90;;;;;;4826637;29;20042;-79
2021/03/10 17:15:41;;;;;;;15.55;9.13;;;6.00;99.90;;;;;;5428819;24;20029;-82
2021/03/10 17:24:54;;;;;;;18.88;10.25;;;5.50;99.90;;;;;;5114113;24;20164;-80
2021/03/10 17:30:58;;;;;;;17.05;10.88;;;5.10;99.90;;;;;;5283441;24;20041;-82
2021/03/10 17:37:50;;;;;;;14.57;8.82;;;4.90;99.90;;;;;;5810739;24;20125;-82
2021/03/10 17:40:38;;;;;;;12.98;7.90;;;4.70;99.90;;;;;;4850204;29;20071;-80
2021/03/10 17:43:09;;;;;;;14.95;8.43;;;4.60;99.90;;;;;;4815998;29;20046;-77
2021/03/10 17:45:37;;;;;;;14.57;8.45;;;4.60;99.90;;;;;;4830409;29;20065;-80
2021/03/10 17:48:09;;;;;;;18.00;11.50;;;4.70;99.90;;;;;;4822591;29;20103;-80
2021/03/10 17:50:37;;;;;;;13.52;9.07;;;4.60;99.90;;;;;;4807553;29;20428;-80
2021/03/10 17:53:03;;;;;;;13.02;8.18;;;4.40;99.90;;;;;;4810121;29;20102;-80
2021/03/10 17:55:35;;;;;;;14.68;8.60;;;4.30;99.90;;;;;;4809462;29;20065;-79
2021/03/10 17:58:06;;;;;;;15.02;9.43;;;4.20;99.90;;;;;;4808039;29;20085;-79
2021/03/10 18:00:36;;;;;;;14.00;8.48;;;4.10;99.90;;;;;;4792875;29;20042;-80
2021/03/10 18:03:08;;;;;;;16.20;9.25;;;4.00;99.90;;;;;;4807876;29;20133;-80
2021/03/10 18:05:40;;;;;;;13.57;8.45;;;4.00;99.90;;;;;;4792912;29;20062;-80
2021/03/10 18:08:11;;;;;;;14.40;8.65;;;4.00;99.90;;;;;;4825558;29;20102;-80
2021/03/10 18:10:43;;;;;;;17.13;8.32;;;3.90;99.90;;;;;;4815613;29;20137;-80
2021/03/10 18:13:10;;;;;;;14.48;8.32;;;3.90;99.90;;;;;;4808812;29;20540;-79
2021/03/10 18:15:37;;;;;;;16.02;8.32;;;3.80;99.90;;;;;;4790496;29;20117;-79
2021/03/10 18:18:09;;;;;;;14.85;8.65;;;3.80;99.90;;;;;;4787187;29;20527;-79
2021/03/10 18:20:40;;;;;;;16.10;8.65;;;3.70;99.90;;;;;;4799555;29;20048;-79
2021/03/10 18:23:12;;;;;;;14.80;9.10;;;3.80;99.90;;;;;;4806664;29;20042;-79
2021/03/10 18:25:43;;;;;;;15.40;8.63;;;3.90;99.90;;;;;;4805924;29;20038;-79
2021/03/10 18:28:15;;;;;;;16.25;9.48;;;4.00;99.90;;;;;;4805983;29;20066;-79
2021/03/10 18:30:46;;;;;;;17.17;9.07;;;4.00;99.90;;;;;;4822153;29;20515;-79
2021/03/10 18:33:18;;;;;;;18.05;9.25;;;4.00;99.90;;;;;;4807308;29;20054;-79
2021/03/10 18:35:49;;;;;;;15.20;8.68;;;3.90;99.90;;;;;;4805972;29;20057;-80
2021/03/10 18:38:20;;;;;;;18.27;8.07;;;4.00;99.90;;;;;;4805363;29;20057;-79
2021/03/10 18:40:52;;;;;;;19.55;8.98;;;3.90;99.90;;;;;;4806747;29;20051;-79
2021/03/10 18:43:24;;;;;;;14.82;9.07;;;3.80;99.90;;;;;;4807111;29;20057;-79
2021/03/10 18:45:55;;;;;;;22.10;10.68;;;3.70;99.90;;;;;;4823296;29;20052;-80
2021/03/10 18:48:26;;;;;;;18.10;11.15;;;3.60;99.90;;;;;;4806620;29;20064;-79
2021/03/10 18:50:57;;;;;;;19.40;10.23;;;3.60;99.90;;;;;;4792242;29;20396;-79
2021/03/10 18:53:35;;;;;;;16.95;10.52;;;3.50;99.90;;;;;;4792198;29;20487;-80
2021/03/10 18:56:06;;;;;;;19.50;11.68;;;3.50;99.90;;;;;;4793087;29;20115;-80
2021/03/10 18:58:38;;;;;;;23.55;14.35;;;3.40;99.90;;;;;;4808994;29;20043;-79